sensor_id;sensor_type;location;lat;lon;timestamp;noise_LAeq;noise_LA_min;noise_LA_max;noise_LA01;noise_LA95
1754;Laerm;58380;48.312;9.246;2023-07-13T08:02:16;46.55;40.13;58.25;;
1754;Laerm;58380;48.312;9.246;2023-07-13T08:04:41;48.85;43.86;67.06;;
1754;Laerm;58380;48.312;9.246;2023-07-13T08:07:07;46.20;37.60;52.42;;
1754;Laerm;58380;48.312;9.246;2023-07-13T08:09:33;45.98;39.46;53.05;;
1754;Laerm;58380;48.312;9.246;2023-07-13T08:11:58;46.57;42.32;54.93;;
1754;Laerm;58380;48.312;9.246;2023-07-13T08:14:23;46.75;40.07;54.18;;
1754;Laerm;58380;48.312;9.246;2023-07-13T08:16:49;44.11;33.72;53.05;;
1754;Laerm;58380;48.312;9.246;2023-07-13T08:19:15;45.59;35.27;61.82;;
1754;Laerm;58380;48.312;9.246;2023-07-13T08:21:40;44.98;34.60;61.49;;
1754;Laerm;58380;48.312;9.246;2023-07-13T08:24:08;45.19;37.85;57.46;;
1754;Laerm;58380;48.312;9.246;2023-07-13T08:26:34;44.93;36.26;53.89;;
1754;Laerm;58380;48.312;9.246;2023-07-13T08:28:59;45.32;36.94;54.36;;
1754;Laerm;58380;48.312;9.246;2023-07-13T08:31:25;53.41;36.50;82.87;;
1754;Laerm;58380;48.312;9.246;2023-07-13T08:33:50;48.98;39.93;78.13;;
1754;Laerm;58380;48.312;9.246;2023-07-13T08:36:15;47.20;35.41;74.02;;
1754;Laerm;58380;48.312;9.246;2023-07-13T08:38:41;51.37;35.05;79.38;;
1754;Laerm;58380;48.312;9.246;2023-07-13T08:41:24;57.68;37.37;91.22;;
1754;Laerm;58380;48.312;9.246;2023-07-13T08:43:57;52.46;35.59;81.73;;
1754;Laerm;58380;48.312;9.246;2023-07-13T08:46:32;46.39;35.71;60.42;;
1754;Laerm;58380;48.312;9.246;2023-07-13T08:49:07;46.72;35.91;63.49;;
1754;Laerm;58380;48.312;9.246;2023-07-13T08:52:01;48.16;36.06;64.81;;
1754;Laerm;58380;48.312;9.246;2023-07-13T08:54:36;50.62;36.11;73.32;;
1754;Laerm;58380;48.312;9.246;2023-07-13T08:57:13;51.78;36.55;73.76;;
1754;Laerm;58380;48.312;9.246;2023-07-13T08:59:39;50.70;36.30;83.08;;
1754;Laerm;58380;48.312;9.246;2023-07-13T09:16:35;71.45;41.29;91.84;;
1754;Laerm;58380;48.312;9.246;2023-07-13T09:19:07;47.31;39.18;57.86;;
1754;Laerm;58380;48.312;9.246;2023-07-13T09:21:42;48.34;40.71;73.57;;
1754;Laerm;58380;48.312;9.246;2023-07-13T09:24:36;69.91;42.04;89.59;;
1754;Laerm;58380;48.312;9.246;2023-07-13T09:27:21;66.37;40.08;89.72;;
1754;Laerm;58380;48.312;9.246;2023-07-13T09:32:41;48.67;41.64;64.68;;
1754;Laerm;58380;48.312;9.246;2023-07-13T09:35:16;66.56;41.20;87.68;;
1754;Laerm;58380;48.312;9.246;2023-07-13T09:37:45;47.14;39.73;63.66;;
1754;Laerm;58380;48.312;9.246;2023-07-13T09:41:01;46.29;37.48;60.88;;
1754;Laerm;58380;48.312;9.246;2023-07-13T09:43:29;45.58;35.55;60.00;;
1754;Laerm;58380;48.312;9.246;2023-07-13T09:45:55;47.20;39.22;69.65;;
1754;Laerm;58380;48.312;9.246;2023-07-13T09:48:21;44.93;35.60;64.54;;
1754;Laerm;58380;48.312;9.246;2023-07-13T09:50:47;47.08;36.04;73.55;;
1754;Laerm;58380;48.312;9.246;2023-07-13T09:53:14;44.11;35.43;59.57;;
1754;Laerm;58380;48.312;9.246;2023-07-13T09:55:42;48.79;36.90;77.20;;
1754;Laerm;58380;48.312;9.246;2023-07-13T09:58:23;69.15;36.51;91.02;;
1754;Laerm;58380;48.312;9.246;2023-07-13T10:01:04;66.91;38.73;91.91;;
1754;Laerm;58380;48.312;9.246;2023-07-13T10:03:35;62.34;38.88;86.71;;
1754;Laerm;58380;48.312;9.246;2023-07-13T10:06:18;43.76;35.78;57.50;;
1754;Laerm;58380;48.312;9.246;2023-07-13T10:08:49;43.64;35.67;64.00;;
1754;Laerm;58380;48.312;9.246;2023-07-13T10:11:23;52.10;35.20;79.30;;
1754;Laerm;58380;48.312;9.246;2023-07-13T10:16:25;66.10;35.43;90.78;;
1754;Laerm;58380;48.312;9.246;2023-07-13T10:18:58;46.50;35.50;71.61;;
1754;Laerm;58380;48.312;9.246;2023-07-13T10:21:32;70.18;36.94;90.75;;
1754;Laerm;58380;48.312;9.246;2023-07-13T10:24:16;42.41;34.10;65.14;;
1754;Laerm;58380;48.312;9.246;2023-07-13T10:26:56;48.75;34.48;73.71;;
1754;Laerm;58380;48.312;9.246;2023-07-13T10:29:27;70.76;35.81;97.79;;
1754;Laerm;58380;48.312;9.246;2023-07-13T10:31:54;67.23;37.01;89.51;;
1754;Laerm;58380;48.312;9.246;2023-07-13T10:34:19;41.48;34.71;57.93;;
1754;Laerm;58380;48.312;9.246;2023-07-13T10:36:47;52.36;35.25;81.13;;
1754;Laerm;58380;48.312;9.246;2023-07-13T10:39:26;46.33;35.90;68.57;;
1754;Laerm;58380;48.312;9.246;2023-07-13T10:42:03;52.40;34.18;77.62;;
1754;Laerm;58380;48.312;9.246;2023-07-13T10:44:32;65.86;34.32;100.01;;
1754;Laerm;58380;48.312;9.246;2023-07-13T10:47:03;58.18;35.07;88.73;;
1754;Laerm;58380;48.312;9.246;2023-07-13T10:49:33;56.57;35.66;80.38;;
1754;Laerm;58380;48.312;9.246;2023-07-13T10:52:01;54.50;36.81;81.55;;
1754;Laerm;58380;48.312;9.246;2023-07-13T10:54:32;56.04;36.74;79.98;;
1754;Laerm;58380;48.312;9.246;2023-07-13T10:57:18;59.09;35.25;90.76;;
1754;Laerm;58380;48.312;9.246;2023-07-13T11:00:14;58.39;35.54;87.97;;
1754;Laerm;58380;48.312;9.246;2023-07-13T11:02:40;66.65;36.12;89.19;;
1754;Laerm;58380;48.312;9.246;2023-07-13T11:05:29;42.61;34.98;52.93;;
1754;Laerm;58380;48.312;9.246;2023-07-13T11:08:32;42.13;36.49;54.55;;
1754;Laerm;58380;48.312;9.246;2023-07-13T11:10:58;45.31;36.27;65.92;;
1754;Laerm;58380;48.312;9.246;2023-07-13T11:16:46;41.90;33.36;58.50;;
1754;Laerm;58380;48.312;9.246;2023-07-13T11:27:41;42.25;35.51;54.43;;
1754;Laerm;58380;48.312;9.246;2023-07-13T11:33:21;43.12;36.96;57.69;;
1754;Laerm;58380;48.312;9.246;2023-07-13T11:38:31;43.47;36.09;58.48;;
1754;Laerm;58380;48.312;9.246;2023-07-13T11:41:03;42.53;34.09;64.65;;
1754;Laerm;58380;48.312;9.246;2023-07-13T11:43:29;44.14;36.07;55.96;;
1754;Laerm;58380;48.312;9.246;2023-07-13T11:45:55;42.78;34.76;59.16;;
1754;Laerm;58380;48.312;9.246;2023-07-13T11:48:27;52.63;35.42;80.34;;
1754;Laerm;58380;48.312;9.246;2023-07-13T11:51:05;41.60;35.29;53.73;;
1754;Laerm;58380;48.312;9.246;2023-07-13T11:53:43;43.50;35.36;54.11;;
1754;Laerm;58380;48.312;9.246;2023-07-13T11:56:11;48.03;35.35;56.78;;
1754;Laerm;58380;48.312;9.246;2023-07-13T11:58:38;48.69;41.51;65.29;;
1754;Laerm;58380;48.312;9.246;2023-07-13T12:01:20;51.09;39.20;59.64;;
1754;Laerm;58380;48.312;9.246;2023-07-13T12:03:49;45.48;34.28;53.57;;
1754;Laerm;58380;48.312;9.246;2023-07-13T12:06:35;43.19;35.13;54.25;;
1754;Laerm;58380;48.312;9.246;2023-07-13T12:09:13;46.44;37.29;67.09;;
1754;Laerm;58380;48.312;9.246;2023-07-13T12:11:43;56.31;37.90;82.10;;
1754;Laerm;58380;48.312;9.246;2023-07-13T12:14:16;55.38;41.71;77.75;;
1754;Laerm;58380;48.312;9.246;2023-07-13T12:16:44;55.16;37.54;75.29;;
1754;Laerm;58380;48.312;9.246;2023-07-13T12:19:27;57.41;36.32;85.28;;
1754;Laerm;58380;48.312;9.246;2023-07-13T12:21:58;66.30;36.17;94.49;;
1754;Laerm;58380;48.312;9.246;2023-07-13T12:24:48;64.73;34.76;87.92;;
1754;Laerm;58380;48.312;9.246;2023-07-13T12:27:27;63.82;37.08;86.76;;
1754;Laerm;58380;48.312;9.246;2023-07-13T12:30:15;57.36;37.29;90.66;;
1754;Laerm;58380;48.312;9.246;2023-07-13T12:33:06;55.06;36.36;84.86;;
1754;Laerm;58380;48.312;9.246;2023-07-13T12:35:41;53.19;35.14;79.44;;
1754;Laerm;58380;48.312;9.246;2023-07-13T12:38:11;56.00;37.09;86.50;;
1754;Laerm;58380;48.312;9.246;2023-07-13T12:40:38;52.97;38.29;74.78;;
1754;Laerm;58380;48.312;9.246;2023-07-13T12:43:14;52.33;35.77;79.48;;
1754;Laerm;58380;48.312;9.246;2023-07-13T12:46:14;66.45;37.28;88.89;;
1754;Laerm;58380;48.312;9.246;2023-07-13T12:48:47;68.89;36.76;89.97;;
1754;Laerm;58380;48.312;9.246;2023-07-13T12:51:14;50.63;37.66;74.58;;
1754;Laerm;58380;48.312;9.246;2023-07-13T12:53:51;54.24;38.47;88.24;;
1754;Laerm;58380;48.312;9.246;2023-07-13T12:56:26;50.89;38.84;76.10;;
1754;Laerm;58380;48.312;9.246;2023-07-13T12:59:03;55.37;34.85;82.72;;
1754;Laerm;58380;48.312;9.246;2023-07-13T13:01:37;52.79;33.84;84.13;;
1754;Laerm;58380;48.312;9.246;2023-07-13T13:04:12;55.90;40.01;85.06;;
1754;Laerm;58380;48.312;9.246;2023-07-13T13:06:44;51.27;35.23;74.60;;
1754;Laerm;58380;48.312;9.246;2023-07-13T13:09:40;54.57;36.10;79.95;;
1754;Laerm;58380;48.312;9.246;2023-07-13T13:12:09;70.45;35.05;93.51;;
1754;Laerm;58380;48.312;9.246;2023-07-13T13:15:22;67.79;34.50;94.11;;
1754;Laerm;58380;48.312;9.246;2023-07-13T13:18:22;54.17;36.87;82.25;;
1754;Laerm;58380;48.312;9.246;2023-07-13T13:20:50;52.44;35.16;78.77;;
1754;Laerm;58380;48.312;9.246;2023-07-13T13:26:20;65.23;35.65;86.52;;
1754;Laerm;58380;48.312;9.246;2023-07-13T13:28:49;70.03;34.34;99.72;;
1754;Laerm;58380;48.312;9.246;2023-07-13T13:31:16;50.71;35.06;70.53;;
1754;Laerm;58380;48.312;9.246;2023-07-13T13:33:44;54.87;37.55;85.84;;
1754;Laerm;58380;48.312;9.246;2023-07-13T13:36:17;50.46;35.50;73.93;;
1754;Laerm;58380;48.312;9.246;2023-07-13T13:38:44;54.19;37.58;74.29;;
1754;Laerm;58380;48.312;9.246;2023-07-13T13:41:13;66.34;39.12;90.30;;
1754;Laerm;58380;48.312;9.246;2023-07-13T13:43:41;52.06;36.73;74.12;;
1754;Laerm;58380;48.312;9.246;2023-07-13T13:46:18;69.08;37.70;92.32;;
1754;Laerm;58380;48.312;9.246;2023-07-13T13:48:44;50.77;33.84;68.08;;
1754;Laerm;58380;48.312;9.246;2023-07-13T13:51:23;54.42;36.68;79.23;;
1754;Laerm;58380;48.312;9.246;2023-07-13T13:53:50;56.40;38.94;81.69;;
1754;Laerm;58380;48.312;9.246;2023-07-13T13:56:18;55.31;35.51;82.64;;
1754;Laerm;58380;48.312;9.246;2023-07-13T13:58:44;45.72;35.20;70.14;;
1754;Laerm;58380;48.312;9.246;2023-07-13T14:01:13;42.44;34.54;63.38;;
1754;Laerm;58380;48.312;9.246;2023-07-13T14:03:40;45.80;37.97;53.59;;
1754;Laerm;58380;48.312;9.246;2023-07-13T14:06:07;45.43;36.36;55.56;;
1754;Laerm;58380;48.312;9.246;2023-07-13T14:08:32;56.37;38.13;86.68;;
1754;Laerm;58380;48.312;9.246;2023-07-13T14:10:58;52.53;39.11;85.17;;
1754;Laerm;58380;48.312;9.246;2023-07-13T14:13:35;50.72;43.84;68.76;;
1754;Laerm;58380;48.312;9.246;2023-07-13T14:16:04;49.96;42.95;57.48;;
1754;Laerm;58380;48.312;9.246;2023-07-13T14:18:30;50.93;41.86;59.54;;
1754;Laerm;58380;48.312;9.246;2023-07-13T14:20:55;49.80;40.67;57.84;;
1754;Laerm;58380;48.312;9.246;2023-07-13T14:23:20;49.91;40.32;56.74;;
1754;Laerm;58380;48.312;9.246;2023-07-13T14:25:46;48.85;42.23;56.96;;
1754;Laerm;58380;48.312;9.246;2023-07-13T14:28:26;49.42;35.47;59.53;;
1754;Laerm;58380;48.312;9.246;2023-07-13T14:30:53;50.87;40.12;58.42;;
1754;Laerm;58380;48.312;9.246;2023-07-13T14:33:22;49.75;39.69;59.59;;
1754;Laerm;58380;48.312;9.246;2023-07-13T14:35:49;48.74;40.81;57.40;;
1754;Laerm;58380;48.312;9.246;2023-07-13T14:38:19;49.89;41.40;54.79;;
1754;Laerm;58380;48.312;9.246;2023-07-13T14:40:46;49.63;41.09;55.54;;
1754;Laerm;58380;48.312;9.246;2023-07-13T14:43:17;48.59;37.51;54.60;;
1754;Laerm;58380;48.312;9.246;2023-07-13T14:45:46;49.11;37.45;59.32;;
1754;Laerm;58380;48.312;9.246;2023-07-13T14:48:20;49.80;38.83;61.11;;
1754;Laerm;58380;48.312;9.246;2023-07-13T14:50:50;47.44;39.16;55.77;;
1754;Laerm;58380;48.312;9.246;2023-07-13T14:53:16;49.27;41.28;56.18;;
1754;Laerm;58380;48.312;9.246;2023-07-13T14:55:41;47.94;34.53;55.91;;
1754;Laerm;58380;48.312;9.246;2023-07-13T14:58:08;47.58;33.75;60.23;;
1754;Laerm;58380;48.312;9.246;2023-07-13T15:00:33;48.98;37.36;62.31;;
1754;Laerm;58380;48.312;9.246;2023-07-13T15:03:00;48.60;35.77;58.57;;
1754;Laerm;58380;48.312;9.246;2023-07-13T15:05:29;56.31;35.11;87.07;;
1754;Laerm;58380;48.312;9.246;2023-07-13T15:07:59;48.76;38.12;65.40;;
1754;Laerm;58380;48.312;9.246;2023-07-13T15:10:29;61.06;36.78;93.67;;
1754;Laerm;58380;48.312;9.246;2023-07-13T15:13:18;62.86;37.13;95.40;;
1754;Laerm;58380;48.312;9.246;2023-07-13T15:15:53;55.08;38.17;82.34;;
1754;Laerm;58380;48.312;9.246;2023-07-13T15:18:22;54.77;39.79;86.04;;
1754;Laerm;58380;48.312;9.246;2023-07-13T15:20:50;53.27;38.05;78.75;;
1754;Laerm;58380;48.312;9.246;2023-07-13T15:23:18;50.58;40.67;73.34;;
1754;Laerm;58380;48.312;9.246;2023-07-13T15:25:44;66.53;39.59;100.44;;
1754;Laerm;58380;48.312;9.246;2023-07-13T15:28:11;54.58;36.23;79.43;;
1754;Laerm;58380;48.312;9.246;2023-07-13T15:30:45;53.13;37.20;75.86;;
1754;Laerm;58380;48.312;9.246;2023-07-13T15:33:16;53.30;39.46;78.16;;
1754;Laerm;58380;48.312;9.246;2023-07-13T15:35:45;58.27;37.33;82.93;;
1754;Laerm;58380;48.312;9.246;2023-07-13T15:38:32;56.67;39.13;88.67;;
1754;Laerm;58380;48.312;9.246;2023-07-13T15:41:16;53.71;38.96;80.53;;
1754;Laerm;58380;48.312;9.246;2023-07-13T15:43:42;48.54;37.78;74.11;;
1754;Laerm;58380;48.312;9.246;2023-07-13T15:46:07;56.85;39.97;87.99;;
1754;Laerm;58380;48.312;9.246;2023-07-13T15:48:32;66.99;40.65;87.15;;
1754;Laerm;58380;48.312;9.246;2023-07-13T15:51:03;54.32;40.13;85.79;;
1754;Laerm;58380;48.312;9.246;2023-07-13T15:53:33;70.43;38.17;92.01;;
1754;Laerm;58380;48.312;9.246;2023-07-13T15:56:00;50.84;41.34;70.65;;
1754;Laerm;58380;48.312;9.246;2023-07-13T15:58:27;46.33;35.91;70.13;;
1754;Laerm;58380;48.312;9.246;2023-07-13T16:00:54;69.76;36.86;95.79;;
1754;Laerm;58380;48.312;9.246;2023-07-13T16:03:20;71.11;39.15;95.26;;
1754;Laerm;58380;48.312;9.246;2023-07-13T16:05:47;60.67;38.32;85.08;;
1754;Laerm;58380;48.312;9.246;2023-07-13T16:08:39;54.09;35.44;85.57;;
1754;Laerm;58380;48.312;9.246;2023-07-13T16:11:24;68.26;40.26;94.26;;
1754;Laerm;58380;48.312;9.246;2023-07-13T16:13:51;58.48;35.34;85.23;;
1754;Laerm;58380;48.312;9.246;2023-07-13T16:16:23;52.95;35.03;81.04;;
1754;Laerm;58380;48.312;9.246;2023-07-13T16:18:53;48.53;35.21;70.26;;
1754;Laerm;58380;48.312;9.246;2023-07-13T16:21:23;57.63;39.11;82.92;;
1754;Laerm;58380;48.312;9.246;2023-07-13T16:23:51;53.39;39.90;80.71;;
1754;Laerm;58380;48.312;9.246;2023-07-13T16:26:37;50.46;39.20;72.39;;
1754;Laerm;58380;48.312;9.246;2023-07-13T16:29:22;55.07;38.19;81.66;;
1754;Laerm;58380;48.312;9.246;2023-07-13T16:32:21;48.84;36.07;71.41;;
1754;Laerm;58380;48.312;9.246;2023-07-13T16:34:46;51.30;37.26;73.35;;
1754;Laerm;58380;48.312;9.246;2023-07-13T16:37:21;51.06;38.36;74.61;;
1754;Laerm;58380;48.312;9.246;2023-07-13T16:39:52;51.08;39.44;74.79;;
1754;Laerm;58380;48.312;9.246;2023-07-13T16:42:24;51.37;38.46;76.86;;
1754;Laerm;58380;48.312;9.246;2023-07-13T16:44:50;54.95;37.36;82.26;;
1754;Laerm;58380;48.312;9.246;2023-07-13T16:47:20;49.53;37.27;71.71;;
1754;Laerm;58380;48.312;9.246;2023-07-13T16:49:48;54.37;37.42;82.80;;
1754;Laerm;58380;48.312;9.246;2023-07-13T16:52:18;58.46;37.86;89.24;;
1754;Laerm;58380;48.312;9.246;2023-07-13T16:54:47;67.09;39.72;89.22;;
1754;Laerm;58380;48.312;9.246;2023-07-13T16:57:22;55.38;37.22;84.81;;
1754;Laerm;58380;48.312;9.246;2023-07-13T16:59:51;50.88;32.51;76.47;;
1754;Laerm;58380;48.312;9.246;2023-07-13T17:02:35;52.14;36.21;82.54;;
1754;Laerm;58380;48.312;9.246;2023-07-13T17:05:02;57.12;35.47;87.29;;
1754;Laerm;58380;48.312;9.246;2023-07-13T17:07:28;57.76;35.64;85.30;;
1754;Laerm;58380;48.312;9.246;2023-07-13T17:09:56;54.58;35.81;85.95;;
1754;Laerm;58380;48.312;9.246;2023-07-13T17:12:22;54.18;35.00;83.67;;
1754;Laerm;58380;48.312;9.246;2023-07-13T17:14:48;58.33;33.93;85.87;;
1754;Laerm;58380;48.312;9.246;2023-07-13T17:17:22;45.73;32.23;73.35;;
1754;Laerm;58380;48.312;9.246;2023-07-13T17:19:51;43.39;35.21;67.28;;
1754;Laerm;58380;48.312;9.246;2023-07-13T17:22:17;42.42;32.41;65.53;;
1754;Laerm;58380;48.312;9.246;2023-07-13T17:24:46;50.09;35.88;78.21;;
1754;Laerm;58380;48.312;9.246;2023-07-13T17:27:14;43.31;32.41;70.35;;
1754;Laerm;58380;48.312;9.246;2023-07-13T17:29:40;42.59;32.64;64.92;;
1754;Laerm;58380;48.312;9.246;2023-07-13T17:32:16;51.49;34.21;82.40;;
1754;Laerm;58380;48.312;9.246;2023-07-13T17:34:43;42.68;34.37;54.88;;
1754;Laerm;58380;48.312;9.246;2023-07-13T17:37:14;44.06;33.77;58.53;;
1754;Laerm;58380;48.312;9.246;2023-07-13T17:39:41;39.93;33.61;48.11;;
1754;Laerm;58380;48.312;9.246;2023-07-13T17:42:07;38.93;31.46;48.51;;
1754;Laerm;58380;48.312;9.246;2023-07-13T17:44:32;40.49;32.00;55.61;;
1754;Laerm;58380;48.312;9.246;2023-07-13T17:46:58;39.69;31.95;48.71;;
1754;Laerm;58380;48.312;9.246;2023-07-13T17:49:25;43.40;33.56;57.14;;
1754;Laerm;58380;48.312;9.246;2023-07-13T17:51:58;40.16;33.22;61.37;;
1754;Laerm;58380;48.312;9.246;2023-07-13T17:54:26;42.50;36.48;51.13;;
1754;Laerm;58380;48.312;9.246;2023-07-13T17:56:53;43.70;36.17;53.39;;
1754;Laerm;58380;48.312;9.246;2023-07-13T17:59:18;40.02;34.61;52.03;;
1754;Laerm;58380;48.312;9.246;2023-07-13T18:01:46;40.05;30.96;48.08;;
1754;Laerm;58380;48.312;9.246;2023-07-13T18:04:15;45.15;34.99;61.08;;
1754;Laerm;58380;48.312;9.246;2023-07-13T18:06:44;45.50;32.10;58.07;;
1754;Laerm;58380;48.312;9.246;2023-07-13T18:09:26;46.96;34.02;57.22;;
1754;Laerm;58380;48.312;9.246;2023-07-13T18:11:53;44.84;34.14;55.04;;
1754;Laerm;58380;48.312;9.246;2023-07-13T18:14:20;43.34;37.37;52.51;;
1754;Laerm;58380;48.312;9.246;2023-07-13T18:16:54;44.10;32.56;55.50;;
1754;Laerm;58380;48.312;9.246;2023-07-13T18:19:43;52.33;31.40;67.04;;
1754;Laerm;58380;48.312;9.246;2023-07-13T18:22:15;46.37;36.97;57.86;;
1754;Laerm;58380;48.312;9.246;2023-07-13T18:24:42;45.45;31.81;55.65;;
1754;Laerm;58380;48.312;9.246;2023-07-13T18:27:08;47.62;36.80;62.76;;
1754;Laerm;58380;48.312;9.246;2023-07-13T18:29:35;44.82;33.60;63.36;;
1754;Laerm;58380;48.312;9.246;2023-07-13T18:32:01;43.05;34.48;57.18;;
1754;Laerm;58380;48.312;9.246;2023-07-13T18:34:36;42.60;32.88;61.06;;
1754;Laerm;58380;48.312;9.246;2023-07-13T18:37:02;46.53;31.56;56.19;;
1754;Laerm;58380;48.312;9.246;2023-07-13T18:39:28;47.23;32.37;61.27;;
1754;Laerm;58380;48.312;9.246;2023-07-13T18:41:53;45.04;31.03;60.06;;
1754;Laerm;58380;48.312;9.246;2023-07-13T18:44:18;46.05;35.83;64.75;;
1754;Laerm;58380;48.312;9.246;2023-07-13T18:46:44;41.77;33.65;50.83;;
1754;Laerm;58380;48.312;9.246;2023-07-13T18:49:11;46.13;35.44;60.24;;
1754;Laerm;58380;48.312;9.246;2023-07-13T18:51:38;43.59;33.64;56.52;;
1754;Laerm;58380;48.312;9.246;2023-07-13T18:54:10;42.46;31.81;53.88;;
1754;Laerm;58380;48.312;9.246;2023-07-13T18:56:36;45.12;32.32;58.48;;
1754;Laerm;58380;48.312;9.246;2023-07-13T18:59:02;45.89;32.42;55.85;;
1754;Laerm;58380;48.312;9.246;2023-07-13T19:01:31;45.95;32.25;58.85;;
1754;Laerm;58380;48.312;9.246;2023-07-13T19:04:01;46.46;33.64;58.01;;
1754;Laerm;58380;48.312;9.246;2023-07-13T19:06:28;44.80;31.18;55.00;;
1754;Laerm;58380;48.312;9.246;2023-07-13T19:08:54;44.01;31.24;54.94;;
1754;Laerm;58380;48.312;9.246;2023-07-13T19:11:20;44.65;32.78;55.55;;
1754;Laerm;58380;48.312;9.246;2023-07-13T19:13:48;47.40;36.09;57.58;;
1754;Laerm;58380;48.312;9.246;2023-07-13T19:16:16;47.56;34.75;59.43;;
1754;Laerm;58380;48.312;9.246;2023-07-13T19:18:42;41.38;35.04;49.47;;
1754;Laerm;58380;48.312;9.246;2023-07-13T19:21:25;44.03;33.80;54.16;;
1754;Laerm;58380;48.312;9.246;2023-07-13T19:23:51;46.21;34.04;56.96;;
1754;Laerm;58380;48.312;9.246;2023-07-13T19:26:26;45.90;36.54;56.64;;
1754;Laerm;58380;48.312;9.246;2023-07-13T19:31:31;45.39;32.63;56.01;;
1754;Laerm;58380;48.312;9.246;2023-07-13T19:36:37;43.20;33.49;57.28;;
1754;Laerm;58380;48.312;9.246;2023-07-13T19:39:04;45.73;33.80;56.39;;
1754;Laerm;58380;48.312;9.246;2023-07-13T19:41:36;49.54;36.03;58.55;;
1754;Laerm;58380;48.312;9.246;2023-07-13T19:44:02;48.32;34.35;60.14;;
1754;Laerm;58380;48.312;9.246;2023-07-13T19:46:34;48.48;34.68;58.29;;
1754;Laerm;58380;48.312;9.246;2023-07-13T19:49:04;45.02;32.44;53.44;;
1754;Laerm;58380;48.312;9.246;2023-07-13T19:51:31;46.82;35.85;58.69;;
1754;Laerm;58380;48.312;9.246;2023-07-13T19:54:02;44.56;34.13;56.12;;
1754;Laerm;58380;48.312;9.246;2023-07-13T19:56:28;46.96;35.23;56.64;;
1754;Laerm;58380;48.312;9.246;2023-07-13T19:58:54;43.18;33.06;55.35;;
1754;Laerm;58380;48.312;9.246;2023-07-13T20:01:20;45.16;33.35;56.84;;
1754;Laerm;58380;48.312;9.246;2023-07-13T20:03:46;45.84;33.95;55.38;;
1754;Laerm;58380;48.312;9.246;2023-07-13T20:06:29;43.07;36.01;49.66;;
1754;Laerm;58380;48.312;9.246;2023-07-13T20:08:58;41.88;34.35;50.11;;
1754;Laerm;58380;48.312;9.246;2023-07-13T20:11:24;41.75;34.16;49.45;;
1754;Laerm;58380;48.312;9.246;2023-07-13T20:13:49;44.13;35.42;49.84;;
1754;Laerm;58380;48.312;9.246;2023-07-13T20:16:15;41.78;32.05;47.77;;
1754;Laerm;58380;48.312;9.246;2023-07-13T20:18:42;42.49;35.74;54.07;;
1754;Laerm;58380;48.312;9.246;2023-07-13T20:21:10;42.30;34.21;50.22;;
1754;Laerm;58380;48.312;9.246;2023-07-13T20:23:40;42.08;32.62;48.72;;
1754;Laerm;58380;48.312;9.246;2023-07-13T20:26:09;44.80;34.33;51.80;;
1754;Laerm;58380;48.312;9.246;2023-07-13T20:28:35;43.43;32.89;50.96;;
1754;Laerm;58380;48.312;9.246;2023-07-13T20:31:01;43.72;33.62;50.57;;
1754;Laerm;58380;48.312;9.246;2023-07-13T20:33:29;43.97;32.53;54.58;;
1754;Laerm;58380;48.312;9.246;2023-07-13T20:36:05;42.48;35.57;50.38;;
1754;Laerm;58380;48.312;9.246;2023-07-13T20:38:32;45.01;36.71;52.62;;
1754;Laerm;58380;48.312;9.246;2023-07-13T20:40:58;42.86;36.78;50.89;;
1754;Laerm;58380;48.312;9.246;2023-07-13T20:43:24;40.11;32.25;48.64;;
1754;Laerm;58380;48.312;9.246;2023-07-13T20:45:58;41.61;35.01;47.27;;
